createdAt,value
2023-02-15T00:05:31.815Z,19.60
2023-02-15T00:07:58.948Z,18.13
2023-02-15T00:10:28.761Z,17.20
2023-02-15T00:12:57.772Z,18.63
2023-02-15T00:15:26.261Z,19.75
2023-02-15T00:17:52.934Z,18.77
2023-02-15T00:20:22.259Z,19.65
2023-02-15T00:22:48.827Z,20.50
2023-02-15T00:25:15.711Z,21.17
2023-02-15T00:27:42.558Z,19.08
2023-02-15T00:30:10.723Z,21.92
2023-02-15T00:32:37.496Z,23.67
2023-02-15T00:35:07.195Z,25.65
2023-02-15T00:37:37.672Z,20.73
2023-02-15T00:40:07.357Z,20.60
2023-02-15T00:42:34.213Z,20.58
2023-02-15T00:45:05.457Z,20.08
2023-02-15T00:47:37.422Z,19.13
2023-02-15T00:50:07.540Z,19.67
2023-02-15T00:52:34.911Z,20.42
2023-02-15T00:58:42.829Z,19.83
2023-02-15T01:01:16.220Z,17.20
2023-02-15T01:03:46.854Z,19.42
2023-02-15T01:06:18.720Z,18.88
2023-02-15T01:09:15.192Z,20.53
2023-02-15T01:11:44.736Z,17.83
2023-02-15T01:14:12.161Z,18.38
2023-02-15T01:16:44.073Z,19.40
2023-02-15T01:19:12.639Z,19.63
2023-02-15T01:21:45.056Z,19.48
2023-02-15T01:24:17.020Z,19.65
2023-02-15T01:26:52.997Z,20.15
2023-02-15T01:29:23.449Z,20.65
2023-02-15T01:31:50.258Z,17.77
2023-02-15T01:34:17.292Z,19.35
2023-02-15T01:36:48.548Z,18.90
2023-02-15T01:39:30.615Z,20.80
2023-02-15T01:41:58.476Z,19.83
2023-02-15T01:44:50.806Z,19.48
2023-02-15T01:47:34.743Z,18.30
2023-02-15T01:50:30.432Z,18.73
2023-02-15T01:53:40.718Z,19.23
2023-02-15T01:56:39.424Z,16.92
2023-02-15T01:59:17.286Z,15.77
2023-02-15T02:02:21.715Z,15.93
2023-02-15T02:05:04.114Z,16.13
2023-02-15T02:07:40.372Z,14.88
2023-02-15T02:13:31.981Z,17.67
2023-02-15T02:16:20.950Z,14.43
2023-02-15T02:19:27.831Z,14.20
2023-02-15T02:22:25.746Z,15.75
2023-02-15T02:25:19.901Z,13.85
2023-02-15T02:28:15.484Z,13.95
2023-02-15T02:30:55.346Z,13.82
2023-02-15T02:33:46.391Z,14.02
2023-02-15T02:36:49.614Z,15.13
2023-02-15T02:39:50.030Z,14.18
2023-02-15T02:45:28.684Z,11.90
2023-02-15T02:48:08.879Z,14.60
2023-02-15T02:50:35.624Z,15.85
2023-02-15T02:53:39.402Z,14.80
2023-02-15T02:56:35.273Z,13.85
2023-02-15T02:59:22.780Z,13.20
2023-02-15T03:02:22.319Z,14.65
2023-02-15T03:05:06.426Z,13.52
2023-02-15T03:07:34.619Z,14.30
2023-02-15T03:10:04.148Z,14.98
2023-02-15T03:12:45.188Z,14.88
2023-02-15T03:15:17.881Z,14.15
2023-02-15T03:17:48.985Z,14.73
2023-02-15T03:20:30.061Z,13.93
2023-02-15T03:23:14.061Z,13.80
2023-02-15T03:26:08.319Z,14.40
2023-02-15T03:28:43.412Z,15.35
2023-02-15T03:31:21.972Z,14.45
2023-02-15T03:34:33.364Z,14.93
2023-02-15T03:37:37.985Z,14.25
2023-02-15T03:41:01.003Z,15.02
2023-02-15T03:43:46.673Z,15.30
2023-02-15T03:46:41.469Z,14.40
2023-02-15T03:49:29.854Z,13.80
2023-02-15T03:52:53.928Z,13.27
2023-02-15T03:55:22.841Z,14.38
2023-02-15T03:58:20.798Z,13.70
2023-02-15T04:01:17.139Z,13.80
2023-02-15T04:04:08.051Z,13.70
2023-02-15T04:06:39.095Z,13.13
2023-02-15T04:09:31.025Z,13.48
2023-02-15T04:12:04.018Z,12.93
2023-02-15T04:15:19.608Z,13.73
2023-02-15T04:17:55.115Z,12.27
2023-02-15T04:20:51.143Z,12.25
2023-02-15T04:23:38.966Z,13.00
2023-02-15T04:26:06.836Z,12.63
2023-02-15T04:28:34.187Z,12.23
2023-02-15T04:31:43.427Z,13.02
2023-02-15T04:34:16.077Z,12.50
2023-02-15T04:40:01.583Z,11.63
2023-02-15T04:42:28.733Z,12.90
2023-02-15T04:44:57.369Z,12.05
2023-02-15T04:47:27.817Z,11.90
2023-02-15T04:49:58.641Z,13.45
2023-02-15T04:52:26.784Z,13.07
2023-02-15T04:55:00.093Z,12.95
2023-02-15T04:57:29.766Z,12.80
2023-02-15T05:00:02.962Z,11.23
2023-02-15T05:02:55.541Z,10.80
2023-02-15T05:05:27.494Z,11.35
2023-02-15T05:07:58.314Z,12.48
2023-02-15T05:10:28.849Z,12.75
2023-02-15T05:12:55.699Z,12.50
2023-02-15T05:15:22.616Z,11.10
2023-02-15T05:17:54.582Z,11.90
2023-02-15T05:20:24.624Z,16.27
2023-02-15T05:22:55.036Z,14.95
2023-02-15T05:26:09.473Z,12.02
2023-02-15T05:28:43.814Z,11.00
2023-02-15T05:31:17.436Z,11.13
2023-02-15T05:34:01.193Z,10.73
2023-02-15T05:38:57.082Z,9.65
2023-02-15T05:41:38.097Z,11.30
2023-02-15T05:44:09.270Z,10.30
2023-02-15T05:46:41.546Z,10.50
2023-02-15T05:49:11.149Z,10.65
2023-02-15T05:51:39.062Z,11.40
2023-02-15T05:54:06.052Z,10.88
2023-02-15T05:56:35.580Z,11.05
2023-02-15T05:59:07.485Z,11.45
2023-02-15T06:01:38.218Z,12.40
2023-02-15T06:04:09.734Z,13.40
2023-02-15T06:06:39.387Z,11.43
2023-02-15T06:09:08.366Z,11.15
2023-02-15T06:11:41.845Z,11.25
2023-02-15T06:14:09.833Z,11.70
2023-02-15T06:16:37.217Z,12.85
2023-02-15T06:19:08.766Z,11.07
2023-02-15T06:21:41.841Z,11.80
2023-02-15T06:24:14.844Z,10.82
2023-02-15T06:26:43.355Z,11.15
2023-02-15T06:29:11.065Z,10.38
2023-02-15T06:31:39.383Z,10.73
2023-02-15T06:34:09.236Z,10.05
2023-02-15T06:36:42.415Z,10.73
2023-02-15T06:39:09.223Z,10.48
2023-02-15T06:41:39.162Z,10.23
2023-02-15T06:44:09.257Z,10.55
2023-02-15T06:46:38.769Z,10.05
2023-02-15T06:49:10.138Z,10.00
2023-02-15T06:51:44.017Z,10.23
2023-02-15T06:54:14.489Z,10.25
2023-02-15T06:56:46.422Z,10.65
2023-02-15T06:59:19.411Z,12.25
2023-02-15T07:01:46.139Z,10.30
2023-02-15T07:04:17.233Z,10.27
2023-02-15T07:06:46.343Z,10.90
2023-02-15T07:09:13.179Z,11.30
2023-02-15T07:12:28.881Z,11.55
2023-02-15T07:15:06.802Z,11.57
2023-02-15T07:17:36.368Z,10.82
2023-02-15T07:20:15.475Z,11.10
2023-02-15T07:22:54.834Z,11.10
2023-02-15T07:25:29.734Z,11.73
2023-02-15T07:28:01.470Z,11.00
2023-02-15T07:30:30.846Z,10.37
2023-02-15T07:33:26.463Z,10.50
2023-02-15T07:35:58.746Z,10.43
2023-02-15T07:38:27.278Z,10.60
2023-02-15T07:41:06.468Z,10.40
2023-02-15T07:43:36.728Z,10.50
2023-02-15T07:46:12.139Z,10.13
2023-02-15T07:48:42.749Z,10.02
2023-02-15T07:51:12.070Z,10.25
2023-02-15T07:53:42.155Z,9.48
2023-02-15T07:56:18.549Z,8.85
2023-02-15T07:58:52.454Z,10.57
2023-02-15T08:01:29.752Z,10.30
2023-02-15T08:03:58.192Z,10.50
2023-02-15T08:06:32.412Z,10.38
2023-02-15T08:09:11.546Z,10.35
2023-02-15T08:11:41.059Z,11.60
2023-02-15T08:14:11.057Z,9.95
2023-02-15T08:16:40.496Z,10.57
2023-02-15T08:19:22.147Z,10.35
2023-02-15T08:21:54.877Z,11.00
2023-02-15T08:24:26.890Z,10.73
2023-02-15T08:26:56.298Z,9.90
2023-02-15T08:29:27.285Z,9.88
2023-02-15T08:32:19.185Z,9.70
2023-02-15T08:34:52.941Z,9.75
2023-02-15T08:37:25.101Z,9.18
2023-02-15T08:40:00.361Z,10.75
2023-02-15T08:42:28.464Z,11.25
2023-02-15T08:47:54.658Z,10.73
2023-02-15T08:50:31.882Z,10.75
2023-02-15T08:56:35.794Z,9.88
2023-02-15T08:59:06.897Z,10.32
2023-02-15T09:01:41.517Z,9.18
2023-02-15T09:04:11.550Z,9.25
2023-02-15T09:06:44.932Z,9.23
2023-02-15T09:12:24.023Z,9.85
2023-02-15T09:23:59.992Z,8.25
2023-02-15T09:32:38.561Z,9.63
2023-02-15T09:35:10.450Z,9.00
2023-02-15T09:37:37.865Z,10.30
2023-02-15T09:40:10.241Z,9.38
2023-02-15T09:42:53.049Z,10.40
2023-02-15T09:48:30.011Z,9.18
2023-02-15T09:51:25.180Z,10.05
2023-02-15T09:54:17.760Z,9.68
2023-02-15T09:56:59.703Z,9.85
2023-02-15T09:59:47.891Z,10.27
2023-02-15T10:02:14.642Z,9.90
2023-02-15T10:05:06.045Z,10.00
2023-02-15T10:08:18.229Z,10.68
2023-02-15T10:11:28.868Z,9.82
2023-02-15T10:14:24.357Z,10.50
2023-02-15T10:17:31.272Z,10.73
2023-02-15T10:20:19.141Z,10.20
2023-02-15T10:23:01.625Z,10.43
2023-02-15T10:25:42.490Z,10.60
2023-02-15T10:28:25.918Z,10.48
2023-02-15T10:31:22.944Z,10.73
2023-02-15T10:34:28.452Z,12.50
2023-02-15T10:37:30.031Z,10.70
2023-02-15T10:40:09.028Z,11.27
2023-02-15T10:43:09.521Z,12.32
2023-02-15T10:46:00.591Z,12.57
2023-02-15T10:48:45.070Z,10.82
2023-02-15T10:51:25.055Z,12.15
2023-02-15T10:54:24.214Z,11.48
2023-02-15T10:57:25.938Z,12.73
2023-02-15T11:00:33.931Z,11.30
2023-02-15T11:03:37.361Z,11.27
2023-02-15T11:09:02.570Z,11.23
2023-02-15T11:11:51.965Z,13.52
2023-02-15T11:14:49.432Z,12.48
2023-02-15T11:17:37.175Z,12.52
2023-02-15T11:21:04.992Z,12.55
2023-02-15T11:24:07.085Z,12.88
2023-02-15T11:26:55.521Z,11.65
2023-02-15T11:29:36.329Z,12.80
2023-02-15T11:32:24.239Z,12.52
2023-02-15T11:35:09.425Z,12.32
2023-02-15T11:38:07.129Z,13.77
2023-02-15T11:41:15.301Z,12.93
2023-02-15T11:43:53.974Z,11.30
2023-02-15T11:46:21.968Z,10.13
2023-02-15T11:48:52.825Z,11.88
2023-02-15T11:51:24.050Z,12.23
2023-02-15T11:53:57.808Z,13.52
2023-02-15T11:59:46.728Z,10.93
2023-02-15T12:02:18.737Z,11.20
2023-02-15T12:05:06.216Z,12.50
2023-02-15T12:07:49.837Z,11.15
2023-02-15T12:10:24.984Z,10.98
2023-02-15T12:13:31.024Z,11.27
2023-02-15T12:16:05.782Z,11.57
2023-02-15T12:18:44.581Z,10.80
2023-02-15T12:21:41.243Z,10.95
2023-02-15T12:24:38.763Z,11.13
2023-02-15T12:27:20.764Z,11.98
2023-02-15T12:30:12.640Z,11.63
2023-02-15T12:33:19.178Z,11.38
2023-02-15T12:35:53.208Z,12.32
2023-02-15T12:38:26.037Z,11.05
2023-02-15T12:43:36.675Z,11.10
2023-02-15T12:46:25.085Z,12.32
2023-02-15T12:49:21.463Z,11.63
2023-02-15T12:54:52.504Z,12.27
2023-02-15T12:57:29.297Z,11.10
2023-02-15T13:00:01.124Z,11.20
2023-02-15T13:02:38.344Z,11.53
2023-02-15T13:05:32.725Z,11.55
2023-02-15T13:08:28.940Z,12.40
2023-02-15T13:11:12.451Z,11.68
2023-02-15T13:14:15.667Z,12.23
2023-02-15T13:16:56.985Z,10.82
2023-02-15T13:19:51.630Z,13.43
2023-02-15T13:22:24.113Z,11.15
2023-02-15T13:25:05.010Z,11.90
2023-02-15T13:27:40.380Z,11.95
2023-02-15T13:30:40.051Z,13.70
2023-02-15T13:33:43.464Z,11.25
2023-02-15T13:36:43.629Z,11.88
2023-02-15T13:39:39.867Z,11.95
2023-02-15T13:42:22.961Z,12.25
2023-02-15T13:45:09.331Z,11.65
2023-02-15T13:47:53.240Z,11.73
2023-02-15T13:50:55.421Z,10.77
2023-02-15T13:53:36.387Z,10.63
2023-02-15T13:56:13.041Z,10.98
2023-02-15T13:59:10.382Z,9.85
2023-02-15T14:01:43.938Z,9.02
2023-02-15T14:04:45.957Z,10.55
2023-02-15T14:07:12.793Z,11.10
2023-02-15T14:10:09.273Z,11.48
2023-02-15T14:12:46.298Z,12.07
2023-02-15T14:15:25.580Z,12.20
2023-02-15T14:18:14.231Z,12.82
2023-02-15T14:20:59.935Z,12.23
2023-02-15T14:23:54.915Z,11.98
2023-02-15T14:27:02.199Z,11.93
2023-02-15T14:29:56.666Z,11.45
2023-02-15T14:32:46.100Z,12.80
2023-02-15T14:35:39.379Z,13.57
2023-02-15T14:38:21.992Z,13.63
2023-02-15T14:41:04.980Z,13.52
2023-02-15T14:43:53.035Z,12.75
2023-02-15T14:46:46.500Z,17.20
2023-02-15T14:49:23.153Z,12.75
2023-02-15T14:51:50.712Z,12.75
2023-02-15T14:54:21.583Z,12.98
2023-02-15T14:57:13.507Z,12.35
2023-02-15T14:59:51.022Z,17.95
2023-02-15T15:02:42.322Z,14.20
2023-02-15T15:05:46.263Z,15.30
2023-02-15T15:08:48.196Z,12.15
2023-02-15T15:11:43.715Z,12.60
2023-02-15T15:14:40.574Z,12.95
2023-02-15T15:17:12.079Z,12.45
2023-02-15T15:19:52.400Z,12.40
2023-02-15T15:22:28.332Z,11.75
2023-02-15T15:25:38.132Z,13.02
2023-02-15T15:28:39.279Z,12.10
2023-02-15T15:31:30.111Z,12.18
2023-02-15T15:34:24.680Z,12.88
2023-02-15T15:36:56.123Z,11.15
2023-02-15T15:51:34.312Z,12.43
2023-02-15T15:54:18.012Z,14.15
2023-02-15T15:57:02.587Z,12.63
2023-02-15T15:59:34.426Z,12.63
2023-02-15T16:02:27.513Z,13.53
2023-02-15T16:05:24.725Z,13.25
2023-02-15T16:07:53.026Z,13.05
2023-02-15T16:10:29.686Z,12.45
2023-02-15T16:12:56.568Z,18.45
2023-02-15T16:15:36.511Z,18.42
2023-02-15T16:18:07.035Z,17.13
2023-02-15T16:20:37.186Z,14.52
2023-02-15T16:23:23.983Z,20.42
2023-02-15T16:26:18.131Z,15.38
2023-02-15T16:28:56.474Z,14.85
2023-02-15T16:31:23.662Z,15.85
2023-02-15T16:33:58.652Z,17.50
2023-02-15T16:36:28.128Z,13.95
2023-02-15T16:38:59.521Z,14.98
2023-02-15T16:41:30.464Z,14.75
2023-02-15T16:44:06.774Z,15.75
2023-02-15T16:46:54.269Z,13.95
2023-02-15T16:49:27.489Z,19.73
2023-02-15T16:54:44.439Z,24.27
2023-02-15T16:57:36.114Z,25.42
2023-02-15T17:00:23.203Z,20.77
2023-02-15T17:03:03.997Z,25.30
2023-02-15T17:05:32.911Z,28.33
2023-02-15T17:08:05.374Z,29.67
2023-02-15T17:10:42.039Z,24.27
2023-02-15T17:13:15.122Z,27.00
2023-02-15T17:16:05.740Z,24.17
2023-02-15T17:21:49.286Z,18.23
2023-02-15T17:24:37.344Z,18.00
2023-02-15T17:27:24.007Z,18.67
2023-02-15T17:30:00.722Z,16.73
2023-02-15T17:32:31.517Z,17.77
2023-02-15T17:35:08.779Z,19.17
2023-02-15T17:37:38.837Z,17.20
2023-02-15T17:40:21.557Z,18.48
2023-02-15T17:42:50.064Z,17.40
2023-02-15T17:45:21.155Z,16.65
2023-02-15T17:47:49.312Z,17.08
2023-02-15T17:50:27.657Z,17.67
2023-02-15T17:52:56.784Z,17.50
2023-02-15T17:55:38.229Z,19.85
2023-02-15T17:58:14.354Z,17.92
2023-02-15T18:01:19.273Z,16.55
2023-02-15T18:04:09.474Z,16.67
2023-02-15T18:06:59.064Z,17.30
2023-02-15T18:28:06.257Z,21.15
2023-02-15T18:30:35.923Z,17.75
2023-02-15T18:33:04.008Z,16.42
2023-02-15T18:35:41.474Z,16.98
2023-02-15T18:38:37.721Z,16.25
2023-02-15T18:41:05.431Z,17.92
2023-02-15T18:43:34.065Z,14.88
2023-02-15T18:46:03.609Z,15.75
2023-02-15T18:48:31.525Z,14.45
2023-02-15T18:50:59.036Z,15.50
2023-02-15T18:53:33.313Z,13.90
2023-02-15T18:56:00.027Z,12.85
2023-02-15T18:58:28.371Z,14.30
2023-02-15T19:01:22.516Z,13.77
2023-02-15T19:03:55.544Z,17.80
2023-02-15T19:06:25.064Z,16.85
2023-02-15T19:08:52.536Z,19.00
2023-02-15T19:11:24.512Z,20.40
2023-02-15T19:13:58.390Z,19.35
2023-02-15T19:16:33.880Z,23.10
2023-02-15T19:19:07.789Z,23.08
2023-02-15T19:21:41.336Z,22.40
2023-02-15T19:27:41.366Z,16.08
2023-02-15T19:30:42.451Z,16.38
2023-02-15T19:33:23.111Z,24.50
2023-02-15T19:35:59.448Z,37.75
2023-02-15T19:38:34.378Z,36.30
2023-02-15T19:41:07.642Z,38.13
2023-02-15T19:43:36.370Z,33.45
2023-02-15T19:46:05.843Z,26.10
2023-02-15T19:48:35.275Z,19.48
2023-02-15T19:51:04.744Z,19.60
2023-02-15T19:53:31.537Z,20.25
2023-02-15T19:56:03.198Z,25.60
2023-02-15T19:58:39.257Z,25.60
2023-02-15T20:01:09.726Z,21.65
2023-02-15T20:03:37.927Z,18.90
2023-02-15T20:06:10.238Z,17.38
2023-02-15T20:08:41.695Z,17.88
2023-02-15T20:11:11.345Z,15.70
2023-02-15T20:13:40.762Z,13.75
2023-02-15T20:16:12.397Z,14.65
2023-02-15T20:18:45.745Z,17.80
2023-02-15T20:21:38.302Z,22.95
2023-02-15T20:24:06.856Z,15.23
2023-02-15T20:26:33.652Z,19.77
2023-02-15T20:29:12.891Z,16.92
2023-02-15T20:31:40.841Z,16.85
2023-02-15T20:34:12.632Z,17.77
2023-02-15T20:36:42.191Z,17.27
2023-02-15T20:39:30.169Z,18.10
2023-02-15T20:42:24.507Z,17.65
2023-02-15T20:44:51.259Z,17.75
2023-02-15T20:47:21.169Z,20.50
2023-02-15T20:49:58.780Z,28.70
2023-02-15T20:52:25.534Z,34.42
2023-02-15T20:54:52.464Z,27.30
2023-02-15T20:57:28.681Z,28.55
2023-02-15T21:00:00.260Z,25.58
2023-02-15T21:06:02.688Z,36.33
2023-02-15T21:08:37.572Z,40.50
2023-02-15T21:11:04.812Z,34.28
2023-02-15T21:13:45.950Z,38.28
2023-02-15T21:16:16.931Z,34.50
2023-02-15T21:18:56.572Z,32.45
2023-02-15T21:21:33.682Z,32.38
2023-02-15T21:24:00.658Z,32.75
2023-02-15T21:26:27.442Z,31.52
2023-02-15T21:28:56.536Z,32.65
2023-02-15T21:31:36.567Z,35.20
2023-02-15T21:34:08.554Z,34.25
2023-02-15T21:36:38.852Z,28.92
2023-02-15T21:39:35.604Z,25.38
2023-02-15T21:42:27.284Z,24.20
2023-02-15T21:45:27.780Z,22.40
2023-02-15T21:47:56.985Z,23.55
2023-02-15T21:50:47.757Z,23.42
2023-02-15T21:53:52.234Z,24.00
2023-02-15T21:56:48.082Z,24.30
2023-02-15T21:59:22.664Z,22.13
2023-02-15T22:01:51.545Z,20.10
2023-02-15T22:04:28.702Z,18.80
2023-02-15T22:06:56.989Z,19.20
2023-02-15T22:09:27.125Z,16.08
2023-02-15T22:11:56.928Z,17.50
2023-02-15T22:14:30.439Z,16.27
2023-02-15T22:17:19.133Z,17.50
2023-02-15T22:19:50.167Z,16.70
2023-02-15T22:22:19.548Z,18.58
2023-02-15T22:25:59.810Z,17.02
2023-02-15T22:33:17.274Z,17.10
2023-02-15T22:38:39.643Z,19.35
2023-02-15T22:44:08.613Z,24.15
2023-02-15T22:55:38.328Z,20.85
2023-02-15T22:58:05.772Z,19.17
2023-02-15T23:00:39.017Z,17.98
2023-02-15T23:03:16.059Z,16.50
2023-02-15T23:05:43.876Z,15.50
2023-02-15T23:08:11.161Z,16.20
2023-02-15T23:10:40.172Z,17.02
2023-02-15T23:13:25.449Z,16.27
2023-02-15T23:15:56.566Z,15.60
2023-02-15T23:18:34.434Z,16.42
2023-02-15T23:21:03.696Z,17.45
2023-02-15T23:23:43.812Z,16.38
2023-02-15T23:26:16.726Z,16.38
2023-02-15T23:29:46.647Z,16.23
2023-02-15T23:32:14.879Z,16.60
2023-02-15T23:34:42.858Z,15.15
2023-02-15T23:37:13.603Z,16.33
2023-02-15T23:40:04.625Z,16.73
2023-02-15T23:42:34.412Z,15.57
2023-02-15T23:45:03.399Z,15.65
2023-02-15T23:47:52.003Z,16.92
2023-02-15T23:53:23.802Z,15.80
2023-02-15T23:55:53.795Z,17.55
2023-02-15T23:58:25.145Z,16.63
